Time;durP1;ratioP1;P1;durP2;ratioP2;P2;SDS_P1;SDS_P2;PMS_P1;PMS_P2;Temp;Humidity;BMP_temperature;BMP_pressure;BME280_temperature;BME280_humidity;BME280_pressure;Samples;Min_cycle;Max_cycle;Signal;HPM_P1;HPM_P2
2021/10/01 00:00:31;;;;;;;12.98;7.32;;;;;;;;;;7392968;19;20014;-45
2021/10/01 00:02:59;;;;;;;10.73;6.80;;;;;;;;;;7394235;19;20021;-41
2021/10/01 00:05:26;;;;;;;10.93;6.85;;;;;;;;;;7394087;19;20021;-39
2021/10/01 00:07:54;;;;;;;12.73;7.68;;;;;;;;;;7391521;19;20035;-39
2021/10/01 00:10:21;;;;;;;9.98;6.68;;;;;;;;;;7393298;19;20082;-41
2021/10/01 00:12:48;;;;;;;8.80;5.97;;;;;;;;;;7393689;19;20010;-51
2021/10/01 00:15:16;;;;;;;8.15;5.72;;;;;;;;;;7391906;19;20018;-44
2021/10/01 00:17:43;;;;;;;10.50;6.47;;;;;;;;;;7393024;19;20018;-52
2021/10/01 00:20:11;;;;;;;13.73;8.65;;;;;;;;;;7392629;19;20010;-46
2021/10/01 00:22:39;;;;;;;11.90;7.43;;;;;;;;;;7392833;19;20009;-48
2021/10/01 00:25:07;;;;;;;11.82;7.63;;;;;;;;;;7392876;19;20022;-50
2021/10/01 00:27:34;;;;;;;12.48;6.10;;;;;;;;;;7390109;19;20369;-43
2021/10/01 00:30:03;;;;;;;9.43;6.80;;;;;;;;;;7393225;19;20010;-50
2021/10/01 00:32:31;;;;;;;10.60;7.10;;;;;;;;;;7393139;19;20019;-42
2021/10/01 00:35:00;;;;;;;11.25;6.93;;;;;;;;;;7394171;19;20066;-45
2021/10/01 00:37:28;;;;;;;10.98;6.82;;;;;;;;;;7391827;19;20034;-42
2021/10/01 00:39:55;;;;;;;15.18;7.32;;;;;;;;;;7390472;19;20353;-48
2021/10/01 00:42:22;;;;;;;12.75;6.88;;;;;;;;;;7390246;19;20010;-48
2021/10/01 00:44:53;;;;;;;11.02;7.60;;;;;;;;;;7392800;19;20019;-47
2021/10/01 00:47:21;;;;;;;9.13;5.65;;;;;;;;;;7390965;19;20010;-52
2021/10/01 00:49:49;;;;;;;8.50;5.88;;;;;;;;;;7390010;19;20010;-45
2021/10/01 00:52:18;;;;;;;10.05;7.10;;;;;;;;;;7393640;19;20035;-43
2021/10/01 00:54:47;;;;;;;11.18;6.82;;;;;;;;;;7390193;19;20018;-48
2021/10/01 00:57:15;;;;;;;12.00;7.30;;;;;;;;;;7391278;19;20014;-47
2021/10/01 00:59:43;;;;;;;108.07;43.03;;;;;;;;;;7390070;19;20038;-46
2021/10/01 01:02:11;;;;;;;45.72;21.17;;;;;;;;;;7389315;19;20046;-49
2021/10/01 01:04:43;;;;;;;18.98;11.57;;;;;;;;;;7391789;19;20003;-47
2021/10/01 01:07:40;;;;;;;14.02;7.70;;;;;;;;;;7388454;19;20018;-45
2021/10/01 01:10:35;;;;;;;11.48;6.63;;;;;;;;;;7390410;19;20026;-44
2021/10/01 01:13:09;;;;;;;9.70;6.43;;;;;;;;;;7393062;19;20028;-49
2021/10/01 01:15:54;;;;;;;10.98;6.95;;;;;;;;;;7388213;19;20011;-48
2021/10/01 01:18:42;;;;;;;8.38;5.80;;;;;;;;;;7388725;19;20475;-47
2021/10/01 01:21:17;;;;;;;9.90;6.25;;;;;;;;;;7388466;19;20074;-45
2021/10/01 01:24:02;;;;;;;10.30;6.05;;;;;;;;;;7389632;19;20038;-53
2021/10/01 01:26:57;;;;;;;14.93;7.55;;;;;;;;;;7388977;19;20034;-44
2021/10/01 01:29:34;;;;;;;9.43;6.45;;;;;;;;;;7391065;19;20014;-56
2021/10/01 01:32:22;;;;;;;9.45;6.00;;;;;;;;;;7389551;19;20017;-42
2021/10/01 01:34:58;;;;;;;14.32;6.65;;;;;;;;;;7390720;19;20011;-44
2021/10/01 01:37:36;;;;;;;11.68;7.45;;;;;;;;;;7388137;19;20523;-42
2021/10/01 01:40:06;;;;;;;10.80;6.30;;;;;;;;;;7396009;19;20021;-38
2021/10/01 01:42:37;;;;;;;13.68;7.80;;;;;;;;;;7397751;19;20493;-41
2021/10/01 01:45:05;;;;;;;15.27;8.05;;;;;;;;;;7398440;19;20018;-39
2021/10/01 01:47:34;;;;;;;10.98;5.63;;;;;;;;;;7396883;19;20506;-53
2021/10/01 01:50:03;;;;;;;8.70;5.93;;;;;;;;;;7396029;19;20023;-50
2021/10/01 01:52:33;;;;;;;10.52;6.55;;;;;;;;;;7396880;19;20026;-50
2021/10/01 01:55:02;;;;;;;9.02;6.28;;;;;;;;;;7397347;19;20015;-48
2021/10/01 01:57:31;;;;;;;9.13;6.45;;;;;;;;;;7395847;19;20100;-49
2021/10/01 02:00:00;;;;;;;10.85;6.05;;;;;;;;;;7397212;19;20371;-50
2021/10/01 02:02:49;;;;;;;9.98;6.25;;;;;;;;;;7397492;19;20015;-52
2021/10/01 02:05:20;;;;;;;12.70;6.70;;;;;;;;;;7397556;19;20015;-50
2021/10/01 02:07:49;;;;;;;12.15;6.10;;;;;;;;;;7395375;19;21553;-44
2021/10/01 02:10:20;;;;;;;11.30;5.70;;;;;;;;;;7395448;19;20030;-44
2021/10/01 02:12:51;;;;;;;10.05;5.95;;;;;;;;;;7396339;19;20014;-42
2021/10/01 02:15:21;;;;;;;8.57;5.70;;;;;;;;;;7395592;19;20017;-52
2021/10/01 02:17:50;;;;;;;9.93;6.70;;;;;;;;;;7396794;19;20010;-50
2021/10/01 02:20:18;;;;;;;13.10;7.00;;;;;;;;;;7396469;19;20022;-44
2021/10/01 02:22:47;;;;;;;8.90;6.05;;;;;;;;;;7394802;19;20018;-48
2021/10/01 02:28:06;;;;;;;7.78;5.45;;;;;;;;;;7394398;19;20046;-45
2021/10/01 02:30:37;;;;;;;8.40;5.20;;;;;;;;;;7396714;19;20082;-44
2021/10/01 02:33:10;;;;;;;9.10;5.97;;;;;;;;;;7396426;19;20013;-51
2021/10/01 02:35:38;;;;;;;9.55;5.03;;;;;;;;;;7394942;19;20507;-45
2021/10/01 02:38:07;;;;;;;12.77;7.05;;;;;;;;;;7394703;19;20581;-47
2021/10/01 02:40:35;;;;;;;10.02;6.30;;;;;;;;;;7394343;19;20019;-48
2021/10/01 02:43:02;;;;;;;8.93;5.95;;;;;;;;;;7394269;19;20105;-51
2021/10/01 02:45:30;;;;;;;8.23;6.03;;;;;;;;;;7394611;19;20010;-48
2021/10/01 02:48:00;;;;;;;9.65;6.13;;;;;;;;;;7393284;19;20014;-44
2021/10/01 02:50:29;;;;;;;12.98;6.53;;;;;;;;;;7391527;19;20358;-50
2021/10/01 02:53:12;;;;;;;8.20;5.22;;;;;;;;;;7394691;19;20015;-48
2021/10/01 02:55:54;;;;;;;9.43;5.72;;;;;;;;;;7393773;19;21026;-48
2021/10/01 02:58:34;;;;;;;9.50;6.53;;;;;;;;;;7393684;19;20054;-48
2021/10/01 03:01:05;;;;;;;9.55;5.75;;;;;;;;;;7394353;19;20482;-46
2021/10/01 03:03:37;;;;;;;16.73;8.60;;;;;;;;;;7394443;19;20017;-47
2021/10/01 03:06:06;;;;;;;56.50;25.65;;;;;;;;;;7395652;19;20014;-43
2021/10/01 03:08:35;;;;;;;13.02;7.45;;;;;;;;;;7391398;19;20419;-41
2021/10/01 03:11:10;;;;;;;11.05;6.35;;;;;;;;;;7393979;19;20007;-41
2021/10/01 03:13:44;;;;;;;8.95;6.07;;;;;;;;;;7395532;19;20022;-44
2021/10/01 03:16:12;;;;;;;10.23;7.05;;;;;;;;;;7392962;19;20015;-39
2021/10/01 03:18:41;;;;;;;8.95;6.30;;;;;;;;;;7392410;19;20019;-48
2021/10/01 03:21:09;;;;;;;10.57;5.85;;;;;;;;;;7395814;19;20010;-43
2021/10/01 03:23:40;;;;;;;7.53;5.13;;;;;;;;;;7392437;19;20007;-48
2021/10/01 03:26:08;;;;;;;11.88;6.20;;;;;;;;;;7394178;19;20047;-42
2021/10/01 03:28:41;;;;;;;11.52;6.47;;;;;;;;;;7391119;19;20078;-42
2021/10/01 03:31:10;;;;;;;10.50;6.18;;;;;;;;;;7392389;19;20015;-47
2021/10/01 03:33:39;;;;;;;9.18;6.30;;;;;;;;;;7392937;19;20027;-46
2021/10/01 03:36:08;;;;;;;8.38;5.63;;;;;;;;;;7396935;19;20085;-41
2021/10/01 03:38:39;;;;;;;9.93;6.55;;;;;;;;;;7395181;19;20025;-44
2021/10/01 03:41:07;;;;;;;8.48;5.63;;;;;;;;;;7392052;19;20014;-42
2021/10/01 03:43:35;;;;;;;8.70;6.03;;;;;;;;;;7392489;19;20025;-49
2021/10/01 03:46:03;;;;;;;12.40;6.50;;;;;;;;;;7393517;19;20007;-48
2021/10/01 03:48:30;;;;;;;8.70;5.88;;;;;;;;;;7390648;19;20018;-44
2021/10/01 03:51:03;;;;;;;8.35;5.78;;;;;;;;;;7390237;19;20023;-51
2021/10/01 03:53:32;;;;;;;9.25;5.25;;;;;;;;;;7392424;19;20047;-59
2021/10/01 03:56:00;;;;;;;69.93;26.35;;;;;;;;;;7391797;19;20340;-49
2021/10/01 03:58:29;;;;;;;48.83;25.70;;;;;;;;;;7393530;19;20018;-41
2021/10/01 04:00:57;;;;;;;17.48;11.18;;;;;;;;;;7389983;19;20027;-42
2021/10/01 04:03:25;;;;;;;11.13;7.13;;;;;;;;;;7391989;19;20018;-41
2021/10/01 04:05:56;;;;;;;10.15;6.60;;;;;;;;;;7392059;19;20014;-53
2021/10/01 04:08:23;;;;;;;10.05;5.97;;;;;;;;;;7391135;19;20029;-49
2021/10/01 04:10:51;;;;;;;10.93;6.80;;;;;;;;;;7393147;19;20015;-51
2021/10/01 04:13:18;;;;;;;9.25;6.05;;;;;;;;;;7394906;19;20023;-46
2021/10/01 04:15:50;;;;;;;13.93;6.80;;;;;;;;;;7391987;19;20010;-46
2021/10/01 04:18:21;;;;;;;13.02;6.13;;;;;;;;;;7392783;19;20042;-48
2021/10/01 04:20:49;;;;;;;8.65;6.13;;;;;;;;;;7392951;19;20031;-42
2021/10/01 04:23:17;;;;;;;8.95;6.22;;;;;;;;;;7392385;19;20014;-55
2021/10/01 04:25:48;;;;;;;46.92;23.17;;;;;;;;;;7392916;19;20480;-43
2021/10/01 04:28:18;;;;;;;12.63;7.28;;;;;;;;;;7389908;19;20010;-42
2021/10/01 04:30:50;;;;;;;9.25;6.38;;;;;;;;;;7392493;19;20018;-49
2021/10/01 04:35:46;;;;;;;9.38;6.32;;;;;;;;;;7390560;19;20155;-51
2021/10/01 04:38:14;;;;;;;10.27;6.00;;;;;;;;;;7390820;19;20025;-49
2021/10/01 04:40:42;;;;;;;8.30;5.85;;;;;;;;;;7390183;19;20501;-48
2021/10/01 04:43:10;;;;;;;8.90;5.95;;;;;;;;;;7390697;19;20014;-44
2021/10/01 04:45:57;;;;;;;8.27;5.68;;;;;;;;;;7391619;19;20011;-48
2021/10/01 04:48:25;;;;;;;10.68;5.88;;;;;;;;;;7391365;19;20037;-41
2021/10/01 04:50:53;;;;;;;8.93;5.60;;;;;;;;;;7389100;19;20007;-50
2021/10/01 04:53:21;;;;;;;10.88;6.38;;;;;;;;;;7389954;19;20015;-48
2021/10/01 04:55:48;;;;;;;10.25;6.05;;;;;;;;;;7390029;19;20463;-47
2021/10/01 04:58:16;;;;;;;8.38;5.72;;;;;;;;;;7388980;19;20018;-45
2021/10/01 05:01:02;;;;;;;13.23;8.32;;;;;;;;;;7391615;19;20051;-47
2021/10/01 05:03:49;;;;;;;10.38;5.75;;;;;;;;;;7390857;19;20018;-39
2021/10/01 05:06:36;;;;;;;10.90;6.15;;;;;;;;;;7391856;19;20363;-51
2021/10/01 05:09:22;;;;;;;9.25;6.15;;;;;;;;;;7389995;19;20049;-45
2021/10/01 05:12:09;;;;;;;10.57;5.85;;;;;;;;;;7390101;19;20118;-41
2021/10/01 05:14:54;;;;;;;8.82;5.80;;;;;;;;;;7396081;19;20021;-52
2021/10/01 05:17:41;;;;;;;8.63;5.05;;;;;;;;;;7391099;19;20352;-44
2021/10/01 05:20:27;;;;;;;12.25;5.50;;;;;;;;;;7390928;19;20044;-45
2021/10/01 05:23:01;;;;;;;8.02;5.13;;;;;;;;;;7389257;19;20028;-49
2021/10/01 05:25:28;;;;;;;9.80;6.30;;;;;;;;;;7390589;19;20015;-43
2021/10/01 05:27:56;;;;;;;18.88;9.32;;;;;;;;;;7388348;19;20038;-49
2021/10/01 05:30:24;;;;;;;20.25;12.45;;;;;;;;;;7389287;19;20031;-46
2021/10/01 05:32:51;;;;;;;10.60;6.70;;;;;;;;;;7391022;19;20007;-40
2021/10/01 05:35:18;;;;;;;8.95;6.07;;;;;;;;;;7390954;19;20038;-41
2021/10/01 05:37:46;;;;;;;8.32;5.80;;;;;;;;;;7390489;19;20486;-44
2021/10/01 05:40:13;;;;;;;7.93;5.20;;;;;;;;;;7388199;19;20467;-45
2021/10/01 05:42:41;;;;;;;9.05;5.22;;;;;;;;;;7389500;19;20034;-44
2021/10/01 05:45:10;;;;;;;7.53;5.70;;;;;;;;;;7388995;19;20015;-37
2021/10/01 05:47:56;;;;;;;11.32;6.03;;;;;;;;;;7390067;19;20095;-46
2021/10/01 05:50:44;;;;;;;9.35;6.75;;;;;;;;;;7386170;19;20036;-41
2021/10/01 05:56:23;;;;;;;18.83;7.43;;;;;;;;;;7389910;19;20018;-44
2021/10/01 05:59:10;;;;;;;10.77;6.60;;;;;;;;;;7389958;19;20450;-41
2021/10/01 06:01:38;;;;;;;9.02;6.72;;;;;;;;;;7388053;19;20010;-48
2021/10/01 06:04:06;;;;;;;9.35;6.32;;;;;;;;;;7389827;19;20011;-45
2021/10/01 06:06:34;;;;;;;12.63;7.20;;;;;;;;;;7387969;19;20481;-48
2021/10/01 06:09:01;;;;;;;9.25;6.05;;;;;;;;;;7389137;19;20018;-51
2021/10/01 06:11:29;;;;;;;9.07;6.50;;;;;;;;;;7387860;19;20458;-51
2021/10/01 06:13:56;;;;;;;10.70;7.30;;;;;;;;;;7392816;19;20025;-45
2021/10/01 06:16:26;;;;;;;19.33;9.48;;;;;;;;;;7389693;19;20018;-48
2021/10/01 06:18:54;;;;;;;10.63;6.97;;;;;;;;;;7389080;19;20037;-40
2021/10/01 06:21:21;;;;;;;10.27;7.20;;;;;;;;;;7389053;19;20010;-47
2021/10/01 06:23:48;;;;;;;11.85;7.72;;;;;;;;;;7389609;19;20003;-47
2021/10/01 06:26:16;;;;;;;10.18;7.03;;;;;;;;;;7395356;19;20018;-51
2021/10/01 06:28:43;;;;;;;10.23;6.10;;;;;;;;;;7395716;19;20018;-44
2021/10/01 06:31:11;;;;;;;10.07;6.68;;;;;;;;;;7396541;19;20034;-42
2021/10/01 06:33:38;;;;;;;10.60;6.32;;;;;;;;;;7395743;19;20011;-48
2021/10/01 06:36:07;;;;;;;13.55;7.78;;;;;;;;;;7396512;19;20074;-53
2021/10/01 06:38:34;;;;;;;12.65;7.93;;;;;;;;;;7396182;19;20018;-42
2021/10/01 06:41:01;;;;;;;10.98;7.90;;;;;;;;;;7396076;19;20021;-51
2021/10/01 06:43:30;;;;;;;11.20;7.50;;;;;;;;;;7395977;19;20046;-44
2021/10/01 06:45:58;;;;;;;13.63;8.90;;;;;;;;;;7396140;19;20011;-43
2021/10/01 06:48:53;;;;;;;12.75;8.95;;;;;;;;;;7394645;19;20483;-43
2021/10/01 07:22:34;;;;;;;12.18;7.60;;;;;;;;;;7392714;19;20502;-43
2021/10/01 07:45:27;;;;;;;15.63;8.15;;;;;;;;;;7393100;19;20019;-47
2021/10/01 08:20:45;;;;;;;11.95;6.65;;;;;;;;;;7391968;19;20083;-42
2021/10/01 08:23:14;;;;;;;9.48;6.85;;;;;;;;;;7392621;19;20074;-44
2021/10/01 08:25:42;;;;;;;12.30;7.85;;;;;;;;;;7395084;19;20035;-43
2021/10/01 08:28:11;;;;;;;10.93;7.50;;;;;;;;;;7393537;19;20348;-45
2021/10/01 08:31:01;;;;;;;13.00;7.53;;;;;;;;;;7391389;19;20011;-49
2021/10/01 08:33:28;;;;;;;11.50;7.13;;;;;;;;;;7392087;19;20011;-44
2021/10/01 08:35:55;;;;;;;10.18;7.43;;;;;;;;;;7391653;19;20010;-43
2021/10/01 08:38:23;;;;;;;10.63;7.38;;;;;;;;;;7391432;19;20017;-49
2021/10/01 08:40:51;;;;;;;11.50;6.55;;;;;;;;;;7393171;19;20073;-52
2021/10/01 08:43:19;;;;;;;12.07;7.30;;;;;;;;;;7392711;19;20022;-44
2021/10/01 08:45:48;;;;;;;12.15;7.97;;;;;;;;;;7392576;19;20018;-47
2021/10/01 08:48:16;;;;;;;15.82;8.00;;;;;;;;;;7391090;19;20017;-44
2021/10/01 08:50:43;;;;;;;10.25;7.32;;;;;;;;;;7392447;19;20011;-41
2021/10/01 08:53:11;;;;;;;8.90;7.20;;;;;;;;;;7392086;19;20042;-44
2021/10/01 08:55:45;;;;;;;13.13;7.68;;;;;;;;;;7391771;19;20010;-46
2021/10/01 08:58:14;;;;;;;12.30;7.82;;;;;;;;;;7391522;19;20042;-43
2021/10/01 09:00:42;;;;;;;11.15;7.43;;;;;;;;;;7391418;19;20014;-44
2021/10/01 09:03:10;;;;;;;8.32;6.15;;;;;;;;;;7391390;19;20003;-42
2021/10/01 09:05:37;;;;;;;7.93;5.82;;;;;;;;;;7391820;19;20486;-44
2021/10/01 09:08:22;;;;;;;13.52;8.05;;;;;;;;;;7392094;19;20015;-45
2021/10/01 09:11:10;;;;;;;10.93;6.93;;;;;;;;;;7392046;19;20011;-50
2021/10/01 09:13:42;;;;;;;10.93;7.50;;;;;;;;;;7391675;19;20086;-45
2021/10/01 09:16:13;;;;;;;11.70;7.72;;;;;;;;;;7390965;19;20021;-46
2021/10/01 09:18:42;;;;;;;10.25;7.57;;;;;;;;;;7391774;19;20014;-46
2021/10/01 09:21:16;;;;;;;10.07;6.80;;;;;;;;;;7389615;19;20494;-47
2021/10/01 09:23:53;;;;;;;;;;;;;;;;;;7391818;19;20251;-42
2021/10/01 09:26:22;;;;;;;10.95;7.22;;;;;;;;;;7391114;19;19915;-46
2021/10/01 09:28:54;;;;;;;12.82;7.40;;;;;;;;;;7390375;19;20031;-46
2021/10/01 09:31:35;;;;;;;12.35;7.03;;;;;;;;;;7391012;19;20343;-43
2021/10/01 09:34:12;;;;;;;11.32;7.47;;;;;;;;;;7391183;19;20007;-44
2021/10/01 09:36:41;;;;;;;9.70;6.70;;;;;;;;;;7391285;19;20019;-46
2021/10/01 09:39:25;;;;;;;12.25;7.13;;;;;;;;;;7390712;19;20007;-48
2021/10/01 09:41:54;;;;;;;8.98;6.22;;;;;;;;;;7390740;19;20015;-45
2021/10/01 09:44:26;;;;;;;9.68;6.47;;;;;;;;;;7390906;19;20010;-42
2021/10/01 09:46:53;;;;;;;12.55;6.65;;;;;;;;;;7390867;19;20022;-43
2021/10/01 09:49:33;;;;;;;9.85;6.60;;;;;;;;;;7389644;19;20007;-47
2021/10/01 09:52:02;;;;;;;8.65;6.57;;;;;;;;;;7390149;19;20086;-45
2021/10/01 09:54:30;;;;;;;12.52;6.53;;;;;;;;;;7390473;19;20034;-48
2021/10/01 09:57:06;;;;;;;15.40;7.50;;;;;;;;;;7390031;19;20007;-51
2021/10/01 09:59:39;;;;;;;9.68;7.22;;;;;;;;;;7392215;19;20478;-45
2021/10/01 10:02:12;;;;;;;9.60;6.40;;;;;;;;;;7396751;19;20011;-46
2021/10/01 10:04:54;;;;;;;9.88;5.97;;;;;;;;;;7397717;19;20090;-43
2021/10/01 10:07:25;;;;;;;11.07;5.90;;;;;;;;;;7398071;19;20019;-45
2021/10/01 10:10:08;;;;;;;9.02;5.97;;;;;;;;;;7397033;19;20025;-45
2021/10/01 10:22:53;;;;;;;9.65;5.90;;;;;;;;;;7382150;19;20016;-45
2021/10/01 10:25:21;;;;;;;12.10;6.80;;;;;;;;;;7396503;19;20474;-46
2021/10/01 10:27:48;;;;;;;13.25;6.78;;;;;;;;;;7396546;19;20018;-50
2021/10/01 10:30:19;;;;;;;8.55;5.28;;;;;;;;;;7394592;19;20016;-41
2021/10/01 10:32:47;;;;;;;10.13;5.50;;;;;;;;;;7395660;19;20040;-48
2021/10/01 10:35:17;;;;;;;7.75;5.70;;;;;;;;;;7397378;19;20033;-45
2021/10/01 10:37:52;;;;;;;8.57;5.88;;;;;;;;;;7397047;19;20015;-48
2021/10/01 10:40:20;;;;;;;9.82;5.78;;;;;;;;;;7396387;19;20022;-41
2021/10/01 10:42:50;;;;;;;9.60;5.13;;;;;;;;;;7395254;19;20015;-46
2021/10/01 10:45:27;;;;;;;9.48;5.85;;;;;;;;;;7395696;19;20487;-43
2021/10/01 10:48:08;;;;;;;7.97;5.53;;;;;;;;;;7396773;19;20011;-42
2021/10/01 10:50:47;;;;;;;7.90;5.20;;;;;;;;;;7393577;19;20023;-47
2021/10/01 10:53:20;;;;;;;8.20;5.20;;;;;;;;;;7395587;19;20006;-50
2021/10/01 10:55:51;;;;;;;10.30;6.40;;;;;;;;;;7391209;19;20034;-47
2021/10/01 10:58:21;;;;;;;12.35;5.78;;;;;;;;;;7395756;19;20006;-48
2021/10/01 11:01:23;;;;;;;10.23;6.53;;;;;;;;;;7395744;19;20486;-45
2021/10/01 11:04:27;;;;;;;8.45;5.10;;;;;;;;;;7392978;19;20019;-42
2021/10/01 11:06:54;;;;;;;10.38;5.40;;;;;;;;;;7395491;19;20408;-47
2021/10/01 11:09:27;;;;;;;9.05;5.47;;;;;;;;;;7394113;19;20078;-52
2021/10/01 11:12:00;;;;;;;8.48;5.38;;;;;;;;;;7394529;19;20021;-47
2021/10/01 11:14:28;;;;;;;7.75;5.00;;;;;;;;;;7400650;19;20074;-50
2021/10/01 11:16:59;;;;;;;6.45;4.88;;;;;;;;;;7396258;19;20475;-49
2021/10/01 11:20:02;;;;;;;10.38;5.75;;;;;;;;;;7399452;19;20674;-45
2021/10/01 11:22:38;;;;;;;7.05;4.78;;;;;;;;;;7395277;19;20018;-47
2021/10/01 11:25:17;;;;;;;6.50;4.97;;;;;;;;;;7391775;19;20003;-51
2021/10/01 11:27:55;;;;;;;7.78;5.18;;;;;;;;;;7394656;19;20039;-48
2021/10/01 11:30:24;;;;;;;12.70;5.45;;;;;;;;;;7392147;19;20010;-52
2021/10/01 11:32:53;;;;;;;6.88;4.25;;;;;;;;;;7393241;19;20022;-49
2021/10/01 11:35:20;;;;;;;9.02;5.22;;;;;;;;;;7394919;19;20010;-55
2021/10/01 11:37:50;;;;;;;7.80;4.70;;;;;;;;;;7394456;19;20010;-51
2021/10/01 11:40:22;;;;;;;8.30;4.90;;;;;;;;;;7396067;19;20015;-51
2021/10/01 11:42:52;;;;;;;7.20;4.65;;;;;;;;;;7393607;19;20014;-42
2021/10/01 11:45:25;;;;;;;6.93;4.60;;;;;;;;;;7391244;19;20351;-39
2021/10/01 11:47:58;;;;;;;12.25;5.10;;;;;;;;;;7394625;19;20021;-39
2021/10/01 11:50:34;;;;;;;6.28;4.72;;;;;;;;;;7392410;19;20018;-39
2021/10/01 11:53:04;;;;;;;6.90;4.82;;;;;;;;;;7394258;19;20081;-40
2021/10/01 11:55:35;;;;;;;7.32;4.57;;;;;;;;;;7394325;19;20758;-39
2021/10/01 11:58:14;;;;;;;5.40;3.65;;;;;;;;;;7394421;19;20010;-39
2021/10/01 12:00:42;;;;;;;5.15;3.92;;;;;;;;;;7393737;19;20081;-39
2021/10/01 12:03:15;;;;;;;9.35;4.85;;;;;;;;;;7393776;19;20024;-46
2021/10/01 12:05:48;;;;;;;9.05;5.25;;;;;;;;;;7393498;19;20019;-40
2021/10/01 12:08:22;;;;;;;6.40;4.10;;;;;;;;;;7393333;19;20010;-40
2021/10/01 12:10:54;;;;;;;12.13;4.88;;;;;;;;;;7389675;19;20350;-42
2021/10/01 12:13:33;;;;;;;8.50;4.70;;;;;;;;;;7394854;19;20082;-40
2021/10/01 12:16:09;;;;;;;8.88;4.93;;;;;;;;;;7393111;19;20021;-40
2021/10/01 12:18:54;;;;;;;9.10;4.82;;;;;;;;;;7396539;19;20082;-40
2021/10/01 12:21:24;;;;;;;7.70;4.90;;;;;;;;;;7393090;19;20018;-40
2021/10/01 12:24:01;;;;;;;7.65;4.93;;;;;;;;;;7391114;19;20035;-40
2021/10/01 12:26:42;;;;;;;9.82;4.75;;;;;;;;;;7393531;19;20010;-40
2021/10/01 12:29:11;;;;;;;5.88;4.50;;;;;;;;;;7391100;19;20478;-51
2021/10/01 12:31:48;;;;;;;6.72;5.15;;;;;;;;;;7391976;19;20474;-45
2021/10/01 12:34:28;;;;;;;6.60;4.95;;;;;;;;;;7391436;19;20006;-46
2021/10/01 12:37:06;;;;;;;191.57;85.28;;;;;;;;;;7392370;19;20014;-44
2021/10/01 12:39:36;;;;;;;15.68;9.32;;;;;;;;;;7392976;19;20033;-42
2021/10/01 12:42:06;;;;;;;8.63;5.95;;;;;;;;;;7392721;19;20022;-43
2021/10/01 12:44:38;;;;;;;8.50;5.10;;;;;;;;;;7391779;19;20470;-52
2021/10/01 12:47:17;;;;;;;10.05;5.57;;;;;;;;;;7391714;19;20506;-43
2021/10/01 12:50:11;;;;;;;11.20;5.53;;;;;;;;;;7391036;19;20002;-48
2021/10/01 12:52:45;;;;;;;7.35;5.82;;;;;;;;;;7396196;19;20383;-40
2021/10/01 12:55:14;;;;;;;7.13;5.25;;;;;;;;;;7392272;19;20022;-48
2021/10/01 12:57:44;;;;;;;10.70;5.15;;;;;;;;;;7391837;19;20007;-49
2021/10/01 13:00:20;;;;;;;8.05;5.50;;;;;;;;;;7391335;19;20070;-46
2021/10/01 13:03:02;;;;;;;10.35;5.72;;;;;;;;;;7390095;19;20038;-50
2021/10/01 13:05:36;;;;;;;9.13;5.25;;;;;;;;;;7391504;19;20011;-44
2021/10/01 13:08:03;;;;;;;;;;;;;;;;;;7391754;19;20024;-48
2021/10/01 13:10:51;;;;;;;6.80;5.43;;;;;;;;;;7390755;19;19950;-44
2021/10/01 13:13:21;;;;;;;9.15;5.50;;;;;;;;;;7393402;19;20007;-50
2021/10/01 13:16:23;;;;;;;7.15;5.43;;;;;;;;;;7391472;19;20014;-47
2021/10/01 13:19:03;;;;;;;9.38;4.97;;;;;;;;;;7391427;19;20018;-45
2021/10/01 13:21:31;;;;;;;7.72;5.68;;;;;;;;;;7391437;19;20021;-41
2021/10/01 13:24:01;;;;;;;7.72;5.47;;;;;;;;;;7390678;19;20037;-47
2021/10/01 13:26:42;;;;;;;8.48;5.65;;;;;;;;;;7391034;19;20074;-50
2021/10/01 13:29:12;;;;;;;11.65;6.22;;;;;;;;;;7391060;19;20014;-51
2021/10/01 13:31:42;;;;;;;9.70;6.30;;;;;;;;;;7388616;19;20478;-53
2021/10/01 13:34:12;;;;;;;9.00;5.90;;;;;;;;;;7387936;19;20007;-42
2021/10/01 13:36:40;;;;;;;224.90;95.35;;;;;;;;;;7390450;19;20083;-48
2021/10/01 13:39:08;;;;;;;10.05;6.82;;;;;;;;;;7390492;19;20011;-47
2021/10/01 13:41:38;;;;;;;9.65;6.13;;;;;;;;;;7390426;19;20014;-53
2021/10/01 13:44:06;;;;;;;10.40;6.13;;;;;;;;;;7389579;19;20019;-50
2021/10/01 13:46:34;;;;;;;12.68;5.82;;;;;;;;;;7389725;19;20014;-43
2021/10/01 13:49:02;;;;;;;9.80;5.00;;;;;;;;;;7390751;19;20096;-42
2021/10/01 13:51:29;;;;;;;9.05;6.07;;;;;;;;;;7388414;19;20022;-48
2021/10/01 13:53:57;;;;;;;11.68;5.72;;;;;;;;;;7389755;19;20043;-46
2021/10/01 13:56:24;;;;;;;10.02;5.85;;;;;;;;;;7390495;19;20018;-51
2021/10/01 13:58:51;;;;;;;10.23;6.05;;;;;;;;;;7389865;19;20015;-48
2021/10/01 14:01:19;;;;;;;7.43;5.30;;;;;;;;;;7390176;19;20010;-51
2021/10/01 14:03:47;;;;;;;10.32;5.28;;;;;;;;;;7389805;19;20007;-40
2021/10/01 14:06:14;;;;;;;8.68;5.70;;;;;;;;;;7389112;19;20034;-40
2021/10/01 14:08:41;;;;;;;9.32;6.20;;;;;;;;;;7389346;19;20506;-50
2021/10/01 14:11:33;;;;;;;7.38;4.90;;;;;;;;;;7388516;19;20018;-44
2021/10/01 14:14:00;;;;;;;8.60;5.22;;;;;;;;;;7392691;19;20002;-50
2021/10/01 14:16:28;;;;;;;11.60;6.03;;;;;;;;;;7389817;19;20074;-49
2021/10/01 14:18:55;;;;;;;8.35;5.90;;;;;;;;;;7389288;19;20471;-44
2021/10/01 14:21:24;;;;;;;10.80;6.40;;;;;;;;;;7389473;19;20357;-42
2021/10/01 14:23:52;;;;;;;13.40;6.47;;;;;;;;;;7388706;19;20466;-42
2021/10/01 14:26:20;;;;;;;9.23;6.47;;;;;;;;;;7388807;19;20046;-40
2021/10/01 14:28:48;;;;;;;10.05;6.00;;;;;;;;;;7389318;19;20402;-51
2021/10/01 14:31:15;;;;;;;9.98;6.05;;;;;;;;;;7386874;19;20017;-48
2021/10/01 14:33:43;;;;;;;9.48;6.25;;;;;;;;;;7388831;19;20100;-40
2021/10/01 14:36:11;;;;;;;11.38;6.38;;;;;;;;;;7388584;19;20018;-41
2021/10/01 14:38:39;;;;;;;9.95;6.43;;;;;;;;;;7389207;19;20018;-38
2021/10/01 14:41:10;;;;;;;12.65;6.82;;;;;;;;;;7389049;19;20029;-46
2021/10/01 14:43:38;;;;;;;11.70;6.80;;;;;;;;;;7388171;19;20022;-46
2021/10/01 14:46:06;;;;;;;10.70;7.07;;;;;;;;;;7392391;19;20007;-40
2021/10/01 14:48:36;;;;;;;10.48;7.10;;;;;;;;;;7396516;19;20002;-42
2021/10/01 14:51:04;;;;;;;20.60;7.57;;;;;;;;;;7394049;19;20498;-40
2021/10/01 14:53:32;;;;;;;13.52;8.10;;;;;;;;;;7396521;19;20011;-43
2021/10/01 14:56:00;;;;;;;131.40;49.72;;;;;;;;;;7396262;19;20474;-42
2021/10/01 14:58:27;;;;;;;54.33;24.00;;;;;;;;;;7396378;19;20082;-41
2021/10/01 15:00:54;;;;;;;24.70;15.25;;;;;;;;;;7395462;19;20139;-40
2021/10/01 15:03:22;;;;;;;16.67;11.43;;;;;;;;;;7394312;19;20026;-43
2021/10/01 15:05:49;;;;;;;13.38;10.20;;;;;;;;;;7395218;19;20014;-40
2021/10/01 15:08:17;;;;;;;14.90;10.43;;;;;;;;;;7394876;19;20023;-40
2021/10/01 15:10:56;;;;;;;12.43;8.73;;;;;;;;;;7394663;19;20491;-48
2021/10/01 15:13:23;;;;;;;17.80;8.98;;;;;;;;;;7395442;19;20621;-47
2021/10/01 15:15:51;;;;;;;12.40;8.57;;;;;;;;;;7394990;19;20007;-42
2021/10/01 15:18:19;;;;;;;13.45;7.43;;;;;;;;;;7394715;19;20018;-43
2021/10/01 15:20:46;;;;;;;13.75;8.48;;;;;;;;;;7393087;19;20007;-41
2021/10/01 15:23:14;;;;;;;9.80;7.43;;;;;;;;;;7394306;19;20006;-49
2021/10/01 15:25:42;;;;;;;8.88;6.70;;;;;;;;;;7393810;19;20486;-47
2021/10/01 15:28:11;;;;;;;11.77;7.07;;;;;;;;;;7394917;19;20014;-42
2021/10/01 15:30:40;;;;;;;16.73;10.80;;;;;;;;;;7393461;19;20006;-44
2021/10/01 15:33:08;;;;;;;87.93;42.97;;;;;;;;;;7394202;19;20006;-45
2021/10/01 15:35:35;;;;;;;23.48;14.05;;;;;;;;;;7394247;19;20014;-46
2021/10/01 15:38:04;;;;;;;13.60;8.77;;;;;;;;;;7394905;19;20018;-44
2021/10/01 15:40:35;;;;;;;15.48;8.65;;;;;;;;;;7395043;19;20018;-44
2021/10/01 15:43:03;;;;;;;14.77;8.57;;;;;;;;;;7394550;19;20494;-48
2021/10/01 15:45:40;;;;;;;13.18;9.20;;;;;;;;;;7395177;19;20027;-43
2021/10/01 15:48:07;;;;;;;17.52;8.85;;;;;;;;;;7393754;19;20506;-40
2021/10/01 15:50:36;;;;;;;101.15;51.88;;;;;;;;;;7392484;19;20007;-43
2021/10/01 15:53:05;;;;;;;45.75;22.88;;;;;;;;;;7394099;19;20018;-43
2021/10/01 15:55:34;;;;;;;22.95;13.25;;;;;;;;;;7394039;19;20482;-42
2021/10/01 15:58:03;;;;;;;20.27;9.60;;;;;;;;;;7390440;19;20364;-45
2021/10/01 16:00:30;;;;;;;12.90;8.50;;;;;;;;;;7392402;19;20014;-42
2021/10/01 16:02:58;;;;;;;17.13;7.95;;;;;;;;;;7393750;19;20011;-41
2021/10/01 16:05:26;;;;;;;15.32;8.30;;;;;;;;;;7392833;19;20018;-43
2021/10/01 16:07:54;;;;;;;12.80;7.68;;;;;;;;;;7393020;19;20017;-42
2021/10/01 16:10:22;;;;;;;11.45;7.45;;;;;;;;;;7393251;19;20015;-41
2021/10/01 16:12:51;;;;;;;13.18;7.70;;;;;;;;;;7393162;19;20090;-41
2021/10/01 16:15:20;;;;;;;11.52;7.05;;;;;;;;;;7393366;19;20011;-43
2021/10/01 16:17:47;;;;;;;15.02;7.70;;;;;;;;;;7392353;19;20033;-46
2021/10/01 16:20:19;;;;;;;13.15;8.63;;;;;;;;;;7392829;19;20499;-42
2021/10/01 16:22:50;;;;;;;12.75;7.13;;;;;;;;;;7392496;19;20010;-45
2021/10/01 16:25:22;;;;;;;12.45;7.35;;;;;;;;;;7391826;19;20010;-38
2021/10/01 16:27:53;;;;;;;14.68;7.45;;;;;;;;;;7392269;19;20029;-49
2021/10/01 16:30:21;;;;;;;11.25;7.13;;;;;;;;;;7392119;19;20104;-44
2021/10/01 16:32:49;;;;;;;10.10;6.93;;;;;;;;;;7391152;19;20007;-41
2021/10/01 16:35:17;;;;;;;12.73;8.02;;;;;;;;;;7392184;19;20022;-48
2021/10/01 16:37:45;;;;;;;13.52;8.43;;;;;;;;;;7392276;19;20010;-43
2021/10/01 16:40:13;;;;;;;14.60;8.30;;;;;;;;;;7392232;19;20011;-48
2021/10/01 16:42:42;;;;;;;13.23;7.22;;;;;;;;;;7392259;19;20010;-59
2021/10/01 16:45:11;;;;;;;69.47;32.70;;;;;;;;;;7392016;19;20019;-50